createdAt,value
2022-11-06T00:00:30.958Z,42.08
2022-11-06T00:03:02.999Z,41.95
2022-11-06T00:05:48.910Z,43.15
2022-11-06T00:08:26.651Z,43.13
2022-11-06T00:10:54.679Z,38.80
2022-11-06T00:13:22.791Z,40.67
2022-11-06T00:15:51.864Z,39.40
2022-11-06T00:18:20.349Z,38.28
2022-11-06T00:20:48.161Z,37.90
2022-11-06T00:23:16.235Z,38.30
2022-11-06T00:25:44.041Z,38.15
2022-11-06T00:28:12.210Z,41.00
2022-11-06T00:30:40.598Z,38.92
2022-11-06T00:33:10.659Z,40.15
2022-11-06T00:35:39.148Z,40.30
2022-11-06T00:38:07.593Z,39.95
2022-11-06T00:40:35.667Z,41.60
2022-11-06T00:43:03.744Z,43.13
2022-11-06T00:45:31.451Z,39.47
2022-11-06T00:47:59.956Z,40.30
2022-11-06T00:50:29.221Z,39.13
2022-11-06T00:52:57.237Z,39.78
2022-11-06T00:55:25.078Z,38.05
2022-11-06T00:57:53.208Z,38.35
2022-11-06T01:00:22.383Z,36.95
2022-11-06T01:02:50.599Z,35.97
2022-11-06T01:05:18.926Z,37.35
2022-11-06T01:07:48.234Z,38.35
2022-11-06T01:10:16.208Z,38.53
2022-11-06T01:12:44.256Z,38.40
2022-11-06T01:15:12.215Z,35.40
2022-11-06T01:17:40.299Z,38.22
2022-11-06T01:20:09.139Z,37.42
2022-11-06T01:22:37.092Z,36.03
2022-11-06T01:25:07.934Z,37.78
2022-11-06T01:27:36.130Z,36.55
2022-11-06T01:30:04.148Z,37.67
2022-11-06T01:32:32.550Z,37.03
2022-11-06T01:35:00.262Z,37.65
2022-11-06T01:37:28.226Z,36.45
2022-11-06T01:39:56.259Z,36.03
2022-11-06T01:42:25.599Z,37.35
2022-11-06T01:45:30.479Z,36.58
2022-11-06T01:47:58.819Z,36.38
2022-11-06T01:50:27.616Z,36.63
2022-11-06T01:52:56.687Z,36.25
2022-11-06T01:55:28.208Z,36.08
2022-11-06T01:57:58.720Z,37.90
2022-11-06T02:00:27.599Z,36.25
2022-11-06T02:02:55.961Z,36.35
2022-11-06T02:05:24.235Z,37.33
2022-11-06T02:07:54.065Z,39.70
2022-11-06T02:10:21.987Z,37.35
2022-11-06T02:13:01.122Z,38.15
2022-11-06T02:15:37.606Z,39.85
2022-11-06T02:18:24.080Z,38.13
2022-11-06T02:21:09.704Z,40.53
2022-11-06T02:24:01.413Z,39.45
2022-11-06T02:26:59.487Z,36.58
2022-11-06T02:29:34.181Z,36.92
2022-11-06T02:32:07.957Z,38.55
2022-11-06T02:34:37.900Z,39.25
2022-11-06T02:37:12.095Z,37.20
2022-11-06T02:39:44.568Z,38.80
2022-11-06T02:42:16.002Z,40.83
2022-11-06T02:44:48.875Z,37.97
2022-11-06T02:47:19.548Z,39.47
2022-11-06T02:49:52.411Z,38.50
2022-11-06T02:52:24.426Z,38.10
2022-11-06T02:54:57.535Z,39.38
2022-11-06T02:57:27.627Z,37.78
2022-11-06T03:00:04.099Z,38.40
2022-11-06T03:02:40.744Z,39.75
2022-11-06T03:05:14.034Z,38.00
2022-11-06T03:07:48.598Z,38.03
2022-11-06T03:10:17.787Z,38.90
2022-11-06T03:12:55.665Z,36.72
2022-11-06T03:15:33.064Z,36.42
2022-11-06T03:18:07.320Z,37.75
2022-11-06T03:20:40.987Z,37.05
2022-11-06T03:23:15.007Z,37.35
2022-11-06T03:25:48.297Z,37.03
2022-11-06T03:28:24.872Z,35.33
2022-11-06T03:30:59.388Z,35.35
2022-11-06T03:33:33.963Z,33.67
2022-11-06T03:36:07.305Z,35.05
2022-11-06T03:38:41.983Z,34.58
2022-11-06T03:41:15.794Z,33.63
2022-11-06T03:43:46.910Z,33.22
2022-11-06T03:46:20.054Z,32.47
2022-11-06T03:48:49.937Z,32.97
2022-11-06T03:51:22.320Z,32.90
2022-11-06T03:53:54.260Z,33.80
2022-11-06T03:56:27.431Z,32.75
2022-11-06T03:58:57.272Z,34.25
2022-11-06T04:01:35.033Z,33.35
2022-11-06T04:04:07.050Z,32.83
2022-11-06T04:09:26.723Z,32.25
2022-11-06T04:12:15.234Z,34.13
2022-11-06T04:14:48.218Z,33.83
2022-11-06T04:17:18.591Z,36.63
2022-11-06T04:19:51.255Z,35.35
2022-11-06T04:22:31.948Z,37.42
2022-11-06T04:25:25.418Z,39.95
2022-11-06T04:28:07.550Z,40.28
2022-11-06T04:30:44.800Z,40.97
2022-11-06T04:33:19.769Z,42.40
2022-11-06T04:35:59.520Z,40.95
2022-11-06T04:38:37.315Z,40.95
2022-11-06T04:41:13.701Z,42.85
2022-11-06T04:43:47.157Z,43.80
2022-11-06T04:46:21.075Z,42.92
2022-11-06T04:48:51.163Z,41.38
2022-11-06T04:51:23.631Z,41.40
2022-11-06T04:53:53.179Z,42.65
2022-11-06T04:56:29.160Z,42.63
2022-11-06T04:58:58.116Z,42.85
2022-11-06T05:01:26.035Z,42.95
2022-11-06T05:03:55.451Z,42.08
2022-11-06T05:06:28.676Z,42.33
2022-11-06T05:08:59.040Z,43.92
2022-11-06T05:11:26.942Z,41.72
2022-11-06T05:13:54.872Z,42.78
2022-11-06T05:16:22.676Z,45.08
2022-11-06T05:18:50.891Z,42.38
2022-11-06T05:21:37.409Z,44.40
2022-11-06T05:24:06.468Z,44.10
2022-11-06T05:26:34.194Z,43.67
2022-11-06T05:29:02.296Z,43.90
2022-11-06T05:31:30.222Z,44.10
2022-11-06T05:33:58.232Z,43.13
2022-11-06T05:36:27.344Z,42.63
2022-11-06T05:38:55.595Z,44.45
2022-11-06T05:41:23.360Z,44.38
2022-11-06T05:43:51.492Z,42.92
2022-11-06T05:46:46.530Z,43.88
2022-11-06T05:49:07.780Z,45.65
2022-11-06T05:51:37.162Z,42.00
2022-11-06T05:54:05.435Z,40.85
2022-11-06T05:56:33.127Z,45.80
2022-11-06T05:59:01.188Z,42.78
2022-11-06T06:01:28.988Z,43.42
2022-11-06T06:03:56.991Z,44.75
2022-11-06T06:06:25.011Z,43.05
2022-11-06T06:08:54.428Z,45.03
2022-11-06T06:11:22.167Z,44.50
2022-11-06T06:13:50.210Z,45.17
2022-11-06T06:16:17.933Z,43.78
2022-11-06T06:18:45.885Z,44.97
2022-11-06T06:21:14.878Z,45.80
2022-11-06T06:23:42.932Z,44.90
2022-11-06T06:26:12.015Z,46.95
2022-11-06T06:28:40.098Z,45.65
2022-11-06T06:31:09.708Z,44.20
2022-11-06T06:33:37.896Z,48.50
2022-11-06T06:36:06.948Z,46.88
2022-11-06T06:38:35.013Z,44.95
2022-11-06T06:41:03.485Z,43.63
2022-11-06T06:43:33.256Z,43.75
2022-11-06T06:46:02.703Z,45.15
2022-11-06T06:48:30.846Z,46.47
2022-11-06T06:50:59.377Z,46.50
2022-11-06T06:53:28.314Z,45.65
2022-11-06T06:55:56.047Z,45.38
2022-11-06T06:58:24.641Z,45.70
2022-11-06T07:00:55.577Z,47.13
2022-11-06T07:03:24.180Z,47.55
2022-11-06T07:05:51.966Z,44.42
2022-11-06T07:08:20.051Z,44.92
2022-11-06T07:10:47.730Z,47.13
2022-11-06T07:13:16.096Z,46.85
2022-11-06T07:15:44.142Z,75.50
2022-11-06T07:18:13.604Z,42.58
2022-11-06T07:20:41.557Z,44.13
2022-11-06T07:23:09.908Z,45.95
2022-11-06T07:25:38.169Z,59.88
2022-11-06T07:28:08.267Z,42.67
2022-11-06T07:30:37.048Z,48.72
2022-11-06T07:33:05.879Z,44.60
2022-11-06T07:35:36.106Z,39.95
2022-11-06T07:38:05.529Z,38.85
2022-11-06T07:40:33.349Z,39.10
2022-11-06T07:43:04.784Z,37.13
2022-11-06T07:45:32.588Z,39.20
2022-11-06T07:48:00.868Z,35.22
2022-11-06T07:50:29.187Z,34.85
2022-11-06T07:52:59.006Z,33.30
2022-11-06T07:55:26.727Z,32.88
2022-11-06T07:57:54.866Z,33.63
2022-11-06T08:00:22.587Z,32.30
2022-11-06T08:02:52.435Z,30.27
2022-11-06T08:05:20.314Z,29.77
2022-11-06T08:07:48.478Z,29.10
2022-11-06T08:10:17.705Z,28.80
2022-11-06T08:12:45.875Z,27.40
2022-11-06T08:15:13.580Z,27.98
2022-11-06T08:17:41.486Z,26.27
2022-11-06T08:20:10.791Z,27.55
2022-11-06T08:22:38.847Z,27.13
2022-11-06T08:25:07.847Z,26.95
2022-11-06T08:27:37.776Z,28.80
2022-11-06T08:30:06.348Z,28.42
2022-11-06T08:32:34.332Z,27.77
2022-11-06T08:35:02.202Z,33.63
2022-11-06T08:37:30.180Z,27.83
2022-11-06T08:39:57.842Z,29.63
2022-11-06T08:42:26.036Z,24.83
2022-11-06T08:44:55.045Z,24.35
2022-11-06T08:47:23.140Z,26.73
2022-11-06T08:49:51.113Z,28.05
2022-11-06T08:52:19.201Z,26.05
2022-11-06T08:54:46.956Z,25.65
2022-11-06T08:57:15.167Z,25.90
2022-11-06T08:59:42.869Z,26.08
2022-11-06T09:02:14.717Z,25.75
2022-11-06T09:04:42.765Z,25.05
2022-11-06T09:07:11.035Z,26.25
2022-11-06T09:09:38.715Z,25.77
2022-11-06T09:12:08.112Z,26.25
2022-11-06T09:14:36.633Z,26.20
2022-11-06T09:17:04.607Z,24.88
2022-11-06T09:19:34.056Z,24.52
2022-11-06T09:22:02.025Z,25.23
2022-11-06T09:24:49.992Z,24.90
2022-11-06T09:27:18.067Z,26.50
2022-11-06T09:29:45.732Z,25.35
2022-11-06T09:32:13.728Z,24.95
2022-11-06T09:34:42.956Z,24.52
2022-11-06T09:37:10.915Z,22.20
2022-11-06T09:39:38.613Z,22.10
2022-11-06T09:42:17.026Z,23.33
2022-11-06T09:45:01.603Z,24.70
2022-11-06T09:47:33.632Z,22.02
2022-11-06T09:50:05.982Z,21.45
2022-11-06T09:52:41.383Z,22.08
2022-11-06T09:55:16.187Z,21.77
2022-11-06T09:57:49.351Z,22.77
2022-11-06T10:00:19.191Z,21.42
2022-11-06T10:02:50.192Z,23.27
2022-11-06T10:05:26.688Z,23.85
2022-11-06T10:07:57.130Z,22.50
2022-11-06T10:10:32.427Z,20.77
2022-11-06T10:13:17.773Z,23.42
2022-11-06T10:15:52.589Z,25.05
2022-11-06T10:18:31.026Z,24.90
2022-11-06T10:21:09.007Z,24.05
2022-11-06T10:23:45.227Z,23.17
2022-11-06T10:26:16.772Z,20.38
2022-11-06T10:29:16.783Z,25.17
2022-11-06T10:31:57.299Z,25.60
2022-11-06T10:34:31.748Z,24.17
2022-11-06T10:37:05.159Z,22.10
2022-11-06T10:39:36.285Z,22.70
2022-11-06T10:42:07.230Z,20.92
2022-11-06T10:44:40.386Z,21.50
2022-11-06T10:47:17.586Z,24.13
2022-11-06T10:49:49.048Z,26.45
2022-11-06T10:52:39.347Z,28.67
2022-11-06T10:55:39.743Z,30.52
2022-11-06T10:58:09.578Z,30.35
2022-11-06T11:00:38.589Z,32.67
2022-11-06T11:03:08.993Z,32.78
2022-11-06T11:05:40.046Z,31.58
2022-11-06T11:08:33.246Z,33.33
2022-11-06T11:11:05.203Z,32.58
2022-11-06T11:13:33.693Z,31.10
2022-11-06T11:16:03.702Z,30.42
2022-11-06T11:18:32.221Z,29.98
2022-11-06T11:21:16.452Z,28.38
2022-11-06T11:23:46.243Z,28.30
2022-11-06T11:26:21.099Z,26.73
2022-11-06T11:28:55.609Z,26.58
2022-11-06T11:31:31.022Z,24.52
2022-11-06T11:34:02.181Z,25.92
2022-11-06T11:36:48.744Z,24.47
2022-11-06T11:39:19.842Z,22.58
2022-11-06T11:41:48.078Z,24.42
2022-11-06T11:44:18.762Z,35.70
2022-11-06T11:46:48.392Z,25.42
2022-11-06T11:49:30.900Z,25.83
2022-11-06T11:52:00.258Z,23.42
2022-11-06T11:54:33.175Z,23.38
2022-11-06T11:57:05.718Z,23.45
2022-11-06T11:59:38.320Z,25.92
2022-11-06T12:02:20.924Z,26.17
2022-11-06T12:04:54.543Z,25.35
2022-11-06T12:07:27.592Z,23.35
2022-11-06T12:09:57.843Z,26.05
2022-11-06T12:12:31.590Z,27.27
2022-11-06T12:15:18.135Z,23.10
2022-11-06T12:17:53.427Z,26.63
2022-11-06T12:20:27.188Z,18.33
2022-11-06T12:22:57.508Z,18.75
2022-11-06T12:25:34.068Z,18.13
2022-11-06T12:28:04.183Z,17.30
2022-11-06T12:30:35.315Z,17.08
2022-11-06T12:33:11.379Z,17.25
2022-11-06T12:35:43.180Z,17.63
2022-11-06T12:38:22.162Z,16.80
2022-11-06T12:40:56.392Z,17.13
2022-11-06T12:43:32.481Z,16.25
2022-11-06T12:46:25.959Z,16.20
2022-11-06T12:49:11.231Z,17.50
2022-11-06T12:51:47.607Z,16.90
2022-11-06T12:54:37.657Z,19.25
2022-11-06T12:57:14.619Z,20.48
2022-11-06T13:00:00.434Z,20.05
2022-11-06T13:02:45.188Z,23.20
2022-11-06T13:05:18.608Z,22.42
2022-11-06T13:07:59.226Z,23.48
2022-11-06T13:10:37.841Z,38.50
2022-11-06T13:13:22.393Z,31.65
2022-11-06T13:15:56.330Z,28.55
2022-11-06T13:18:30.320Z,44.22
2022-11-06T13:21:03.192Z,74.93
2022-11-06T13:23:36.580Z,90.60
2022-11-06T13:26:10.640Z,83.93
2022-11-06T13:28:44.262Z,28.80
2022-11-06T13:31:16.143Z,39.22
2022-11-06T13:33:49.041Z,28.63
2022-11-06T13:36:18.624Z,26.52
2022-11-06T13:38:52.469Z,24.45
2022-11-06T13:41:23.310Z,24.55
2022-11-06T13:43:57.748Z,21.98
2022-11-06T13:46:31.292Z,21.27
2022-11-06T13:49:09.853Z,20.50
2022-11-06T13:51:46.983Z,18.52
2022-11-06T13:54:24.783Z,19.65
2022-11-06T13:57:33.352Z,26.73
2022-11-06T14:00:18.841Z,19.25
2022-11-06T14:03:23.111Z,19.65
2022-11-06T14:05:54.500Z,21.25
2022-11-06T14:08:27.651Z,30.17
2022-11-06T14:10:59.816Z,24.70
2022-11-06T14:16:03.720Z,20.70
2022-11-06T14:18:33.107Z,21.55
2022-11-06T14:21:29.248Z,20.70
2022-11-06T14:24:07.096Z,20.40
2022-11-06T14:26:40.002Z,22.13
2022-11-06T14:29:59.578Z,27.88
2022-11-06T14:32:40.880Z,19.50
2022-11-06T14:35:51.432Z,18.67
2022-11-06T14:38:46.081Z,22.15
2022-11-06T14:41:57.967Z,17.27
2022-11-06T14:44:47.189Z,18.45
2022-11-06T14:47:26.897Z,16.65
2022-11-06T14:49:58.013Z,16.90
2022-11-06T14:52:26.595Z,16.88
2022-11-06T14:55:04.755Z,20.50
2022-11-06T14:57:45.847Z,21.63
2022-11-06T15:00:34.136Z,19.90
2022-11-06T15:03:04.460Z,20.17
2022-11-06T15:05:42.001Z,17.65
2022-11-06T15:08:10.762Z,16.95
2022-11-06T15:10:54.967Z,19.95
2022-11-06T15:13:29.912Z,20.67
2022-11-06T15:16:13.388Z,20.80
2022-11-06T15:18:45.802Z,23.77
2022-11-06T15:21:23.613Z,18.13
2022-11-06T15:24:02.704Z,17.65
2022-11-06T15:26:37.317Z,18.55
2022-11-06T15:29:17.942Z,16.20
2022-11-06T15:31:49.780Z,16.42
2022-11-06T15:36:53.917Z,21.50
2022-11-06T15:39:24.061Z,23.38
2022-11-06T15:41:52.432Z,27.45
2022-11-06T15:44:21.228Z,24.05
2022-11-06T15:46:56.109Z,20.40
2022-11-06T15:49:24.292Z,18.02
2022-11-06T15:51:56.716Z,20.27
2022-11-06T15:54:39.164Z,17.50
2022-11-06T15:57:16.555Z,17.83
2022-11-06T15:59:44.683Z,16.80
2022-11-06T16:02:18.463Z,16.83
2022-11-06T16:04:48.107Z,16.63
2022-11-06T16:07:20.664Z,17.75
2022-11-06T16:12:19.382Z,16.63
2022-11-06T16:14:47.335Z,16.23
2022-11-06T16:17:19.383Z,15.85
2022-11-06T16:19:49.295Z,16.45
2022-11-06T16:22:20.763Z,17.45
2022-11-06T16:24:55.607Z,16.80
2022-11-06T16:27:25.060Z,17.98
2022-11-06T16:29:56.530Z,17.90
2022-11-06T16:32:27.730Z,16.52
2022-11-06T16:34:56.027Z,18.60
2022-11-06T16:37:39.739Z,18.42
2022-11-06T16:40:49.035Z,17.67
2022-11-06T16:43:18.656Z,17.50
2022-11-06T16:45:55.644Z,21.35
2022-11-06T16:48:31.876Z,18.67
2022-11-06T16:51:01.143Z,18.25
2022-11-06T16:53:32.409Z,17.90
2022-11-06T16:56:02.497Z,18.88
2022-11-06T16:58:33.159Z,19.92
2022-11-06T17:01:03.348Z,18.70
2022-11-06T17:03:38.932Z,19.38
2022-11-06T17:06:08.207Z,20.10
2022-11-06T17:08:39.481Z,19.23
2022-11-06T17:11:21.611Z,18.52
2022-11-06T17:13:51.078Z,18.90
2022-11-06T17:16:21.391Z,19.23
2022-11-06T17:18:49.246Z,19.98
2022-11-06T17:21:19.397Z,20.05
2022-11-06T17:23:48.906Z,20.60
2022-11-06T17:26:22.363Z,20.40
2022-11-06T17:28:51.038Z,21.40
2022-11-06T17:31:21.535Z,20.88
2022-11-06T17:33:49.846Z,21.10
2022-11-06T17:36:20.006Z,22.52
2022-11-06T17:38:49.583Z,21.40
2022-11-06T17:41:29.760Z,22.52
2022-11-06T17:43:59.093Z,23.08
2022-11-06T17:46:28.662Z,22.70
2022-11-06T17:48:56.939Z,22.67
2022-11-06T17:51:43.648Z,24.15
2022-11-06T17:54:12.956Z,24.02
2022-11-06T17:56:41.225Z,24.42
2022-11-06T17:59:09.488Z,26.73
2022-11-06T18:01:38.025Z,26.88
2022-11-06T18:04:07.218Z,26.95
2022-11-06T18:06:35.196Z,29.05
2022-11-06T18:09:04.975Z,27.67
2022-11-06T18:11:35.198Z,28.70
2022-11-06T18:14:03.509Z,28.58
2022-11-06T18:16:38.474Z,27.75
2022-11-06T18:19:09.948Z,27.90
2022-11-06T18:21:38.104Z,28.60
2022-11-06T18:24:06.644Z,29.05
2022-11-06T18:26:37.337Z,28.65
2022-11-06T18:29:05.429Z,28.63
2022-11-06T18:31:33.705Z,30.00
2022-11-06T18:34:01.559Z,31.60
2022-11-06T18:36:29.611Z,32.95
2022-11-06T18:38:57.314Z,28.27
2022-11-06T18:41:25.586Z,27.92
2022-11-06T18:43:58.521Z,28.80
2022-11-06T18:46:27.812Z,27.45
2022-11-06T18:48:56.643Z,27.38
2022-11-06T18:51:34.593Z,28.25
2022-11-06T18:54:06.390Z,28.98
2022-11-06T18:56:35.931Z,27.70
2022-11-06T18:59:05.851Z,27.55
2022-11-06T19:01:35.770Z,27.15
2022-11-06T19:04:05.856Z,27.38
2022-11-06T19:06:34.298Z,28.02
2022-11-06T19:09:01.974Z,27.77
2022-11-06T19:11:30.663Z,26.70
2022-11-06T19:13:58.776Z,27.13
2022-11-06T19:16:28.148Z,25.35
2022-11-06T19:21:30.664Z,26.50
2022-11-06T19:24:03.450Z,26.75
2022-11-06T19:26:34.119Z,26.48
2022-11-06T19:29:02.148Z,27.58
2022-11-06T19:31:33.133Z,28.00
2022-11-06T19:34:02.664Z,26.70
2022-11-06T19:36:31.457Z,27.70
2022-11-06T19:38:59.677Z,28.08
2022-11-06T19:41:28.619Z,28.52
2022-11-06T19:43:56.545Z,28.13
2022-11-06T19:46:28.537Z,27.10
2022-11-06T19:49:03.216Z,29.25
2022-11-06T19:51:31.658Z,29.42
2022-11-06T19:54:00.234Z,28.85
2022-11-06T19:56:28.523Z,28.83
2022-11-06T19:58:56.250Z,29.45
2022-11-06T20:01:24.228Z,29.05
2022-11-06T20:03:52.096Z,27.83
2022-11-06T20:06:21.839Z,27.70
2022-11-06T20:08:50.227Z,26.38
2022-11-06T20:11:18.593Z,28.95
2022-11-06T20:13:47.064Z,27.63
2022-11-06T20:16:17.078Z,27.13
2022-11-06T20:18:45.646Z,27.08
2022-11-06T20:21:13.699Z,26.80
2022-11-06T20:23:42.754Z,30.38
2022-11-06T20:26:11.202Z,29.63
2022-11-06T20:28:39.040Z,31.08
2022-11-06T20:31:08.124Z,30.02
2022-11-06T20:33:36.800Z,30.45
2022-11-06T20:36:11.068Z,31.27
2022-11-06T20:38:39.037Z,32.85
2022-11-06T20:41:08.700Z,32.13
2022-11-06T20:43:36.433Z,31.15
2022-11-06T20:46:05.213Z,31.70
2022-11-06T20:48:34.093Z,30.10
2022-11-06T20:51:04.466Z,30.67
2022-11-06T20:53:33.201Z,29.75
2022-11-06T20:56:02.671Z,30.67
2022-11-06T20:58:32.487Z,31.35
2022-11-06T21:01:02.410Z,31.75
2022-11-06T21:03:30.257Z,31.05
2022-11-06T21:05:58.299Z,31.42
2022-11-06T21:08:27.863Z,32.97
2022-11-06T21:10:58.118Z,33.05
2022-11-06T21:13:28.761Z,30.83
2022-11-06T21:16:02.785Z,30.67
2022-11-06T21:18:31.348Z,31.55
2022-11-06T21:21:03.584Z,32.20
2022-11-06T21:23:31.639Z,33.40
2022-11-06T21:26:04.651Z,37.42
2022-11-06T21:28:33.363Z,37.17
2022-11-06T21:31:02.924Z,38.20
2022-11-06T21:33:30.892Z,38.85
2022-11-06T21:36:05.862Z,41.90
2022-11-06T21:38:33.949Z,37.05
2022-11-06T21:41:05.194Z,34.80
2022-11-06T21:43:32.949Z,36.97
2022-11-06T21:46:03.522Z,35.17
2022-11-06T21:48:47.654Z,33.60
2022-11-06T21:51:18.628Z,35.78
2022-11-06T21:54:04.942Z,33.58
2022-11-06T21:56:33.621Z,32.45
2022-11-06T21:59:02.260Z,33.13
2022-11-06T22:01:32.672Z,33.28
2022-11-06T22:04:01.310Z,32.78
2022-11-06T22:06:30.932Z,33.95
2022-11-06T22:09:00.404Z,33.90
2022-11-06T22:11:30.680Z,32.60
2022-11-06T22:14:00.470Z,33.30
2022-11-06T22:16:32.730Z,32.63
2022-11-06T22:19:00.833Z,31.02
2022-11-06T22:21:30.845Z,33.33
2022-11-06T22:23:58.820Z,33.88
2022-11-06T22:26:29.026Z,33.88
2022-11-06T22:28:58.469Z,34.17
2022-11-06T22:31:27.031Z,34.42
2022-11-06T22:33:56.303Z,36.30
2022-11-06T22:36:24.914Z,35.58
2022-11-06T22:38:53.467Z,35.63
2022-11-06T22:41:23.541Z,36.78
2022-11-06T22:43:51.984Z,35.17
2022-11-06T22:46:23.070Z,34.03
2022-11-06T22:48:52.272Z,33.10
2022-11-06T22:51:23.943Z,35.58
2022-11-06T22:53:52.065Z,35.87
2022-11-06T22:56:20.862Z,35.15
2022-11-06T22:58:48.896Z,38.58
2022-11-06T23:01:22.208Z,39.85
2022-11-06T23:03:50.712Z,35.67
2022-11-06T23:06:18.656Z,37.50
2022-11-06T23:08:47.663Z,38.10
2022-11-06T23:11:17.423Z,36.45
2022-11-06T23:13:45.826Z,37.95
2022-11-06T23:16:15.981Z,37.33
2022-11-06T23:18:44.995Z,36.70
2022-11-06T23:21:13.902Z,38.20
2022-11-06T23:23:42.655Z,38.58
2022-11-06T23:26:16.273Z,35.20
2022-11-06T23:28:44.872Z,36.47
2022-11-06T23:31:15.602Z,37.70
2022-11-06T23:33:44.427Z,38.50
2022-11-06T23:36:13.932Z,37.63
2022-11-06T23:38:43.156Z,37.97
2022-11-06T23:41:27.256Z,37.92
2022-11-06T23:43:57.852Z,38.13
2022-11-06T23:46:26.869Z,37.50
2022-11-06T23:48:55.067Z,38.22
2022-11-06T23:51:24.369Z,38.42
2022-11-06T23:53:53.027Z,36.83
2022-11-06T23:56:21.191Z,36.08
2022-11-06T23:58:49.600Z,38.45
